KTRI

Tri-Cities Airport

Bristol/Johnson/Kingsport, Tennessee, USA
KTRI 212329Z 2200/2224 VRB03KT P6SM SCT250 FM221700 12005KT P6SM FEW250
Issued Valid From Valid To
Jan-21 @ 23:29 UTC
(39 minutes ago)
Jan-22 @ 00:00 UTC
(8 minutes ago)
Jan-23 @ 00:00 UTC
(in 24 hours)
Jan-22 @ 00:00 to Jan-22 @ 17:00
KTRI 212329Z 2200/2224 VRB03KT P6SM SCT250
Wind Visibility Clouds
Variable at 3 knots Greater than 6 miles
  • Scattered at 25,000' AGL
From Jan-22 @ 17:00 to Jan-23 @ 00:00
FM221700 12005KT P6SM FEW250
Wind Visibility Clouds
120° at 5 knots Greater than 6 miles
  • Few at 25,000' AGL
KTRI 212329Z 2200/2224 VRB03KT P6SM SCT250 FM221700 12005KT P6SM FEW250
Issued Jan-21 @ 23:29 UTC
(39 minutes ago)
Valid From Jan-22 @ 00:00 UTC
(8 minutes ago)
Valid To Jan-23 @ 00:00 UTC
(in 24 hours)
Jan-22 @ 00:00 - Jan-22 @ 17:00
Wind Visibility
Variable at 3 knots Greater than 6 miles
Clouds
  • Scattered at 25,000' AGL
From Jan-22 @ 17:00 - Jan-23 @ 00:00
Wind Visibility
120° at 5 knots Greater than 6 miles
Clouds
  • Few at 25,000' AGL